Time;durP1;ratioP1;P1;durP2;ratioP2;P2;SDS_P1;SDS_P2;PMS_P1;PMS_P2;Temp;Humidity;BMP_temperature;BMP_pressure;BME280_temperature;BME280_humidity;BME280_pressure;Samples;Min_cycle;Max_cycle;Signal;HPM_P1;HPM_P2
2022/11/14 00:02:20;;;;;;;;;;;;;;;10.69;100.00;101208.63;6308327;22;19918;-85
2022/11/14 00:05:06;;;;;;;;;;;;;;;10.68;100.00;101214.06;6308533;22;19994;-85
2022/11/14 00:07:50;;;;;;;;;;;;;;;10.96;100.00;101214.91;6285278;22;20293;-85
2022/11/14 00:10:34;;;;;;;;;;;;;;;10.75;100.00;101218.66;6285745;22;19917;-85
2022/11/14 00:13:18;;;;;;;;;;;;;;;10.97;100.00;101213.94;6308745;22;19914;-84
2022/11/14 00:16:02;;;;;;;;;;;;;;;10.92;100.00;101209.06;6312291;22;19922;-84
2022/11/14 00:18:46;;;;;;;;;;;;;;;10.75;100.00;101205.38;6318415;22;19932;-85
2022/11/14 00:21:30;;;;;;;;;;;;;;;10.92;100.00;101213.53;6306151;22;19918;-81
2022/11/14 00:24:14;;;;;;;;;;;;;;;10.92;100.00;101210.88;6328987;22;19937;-83
2022/11/14 00:26:58;;;;;;;;;;;;;;;10.92;100.00;101216.19;6337083;22;19926;-85
2022/11/14 00:29:45;;;;;;;;;;;;;;;11.03;100.00;101214.19;6336574;22;19922;-84
2022/11/14 00:32:30;;;;;;;;;;;;;;;10.95;100.00;101215.91;6336954;22;19922;-82
2022/11/14 00:35:14;;;;;;;;;;;;;;;10.64;100.00;101216.16;6314639;22;19953;-82
2022/11/14 00:37:58;;;;;;;;;;;;;;;10.85;100.00;101216.78;6331566;22;19933;-82
2022/11/14 00:40:42;;;;;;;;;;;;;;;10.95;100.00;101215.91;6333457;22;19909;-83
2022/11/14 00:43:26;;;;;;;;;;;;;;;11.02;100.00;101222.28;6335155;22;19938;-83
2022/11/14 00:46:10;;;;;;;;;;;;;;;10.89;100.00;101223.47;6335170;22;19921;-84
2022/11/14 00:48:54;;;;;;;;;;;;;;;10.89;100.00;101212.88;6326184;22;19993;-84
2022/11/14 00:51:38;;;;;;;;;;;;;;;10.83;100.00;101213.47;6311042;22;20364;-84
2022/11/14 00:54:22;;;;;;;;;;;;;;;10.91;100.00;101210.03;6286881;22;19918;-85
2022/11/14 00:57:06;;;;;;;;;;;;;;;10.97;100.00;101211.28;6309482;22;19933;-85
2022/11/14 00:59:49;;;;;;;;;;;;;;;10.86;100.00;101207.84;6310757;22;19958;-84
2022/11/14 01:02:33;;;;;;;;;;;;;;;10.74;100.00;101198.41;6309997;22;20256;-84
2022/11/14 01:05:17;;;;;;;;;;;;;;;10.71;100.00;101190.75;6309866;22;19918;-83
2022/11/14 01:08:01;;;;;;;;;;;;;;;10.70;100.00;101201.50;6309823;22;19918;-84
2022/11/14 01:10:47;;;;;;;;;;;;;;;10.64;100.00;101202.09;6309950;22;19964;-84
2022/11/14 01:13:31;;;;;;;;;;;;;;;10.60;100.00;101195.41;6309867;22;19918;-84
2022/11/14 01:16:15;;;;;;;;;;;;;;;10.53;100.00;101195.16;6309585;22;19936;-84
2022/11/14 01:18:59;;;;;;;;;;;;;;;10.55;100.00;101195.84;6286490;22;19964;-85
2022/11/14 01:21:43;;;;;;;;;;;;;;;10.96;100.00;101191.06;6309967;22;19933;-85
2022/11/14 01:24:27;;;;;;;;;;;;;;;10.82;100.00;101182.59;6309566;22;20253;-83
2022/11/14 01:27:11;;;;;;;;;;;;;;;10.81;100.00;101183.59;6308974;22;19933;-82
2022/11/14 01:29:55;;;;;;;;;;;;;;;10.82;100.00;101187.06;6309593;22;20308;-85
2022/11/14 01:32:38;;;;;;;;;;;;;;;10.68;100.00;101184.91;6309529;22;19952;-84
2022/11/14 01:35:22;;;;;;;;;;;;;;;10.81;100.00;101188.03;6309421;22;19921;-84
2022/11/14 01:38:11;;;;;;;;;;;;;;;10.87;100.00;101185.63;6309203;22;19934;-83
2022/11/14 01:40:55;;;;;;;;;;;;;;;10.89;100.00;101181.03;6309116;22;20340;-84
2022/11/14 01:43:40;;;;;;;;;;;;;;;10.92;100.00;101176.41;6309031;22;19952;-84
2022/11/14 01:46:29;;;;;;;;;;;;;;;10.92;100.00;101173.75;6314073;22;19933;-85
2022/11/14 01:49:22;;;;;;;;;;;;;;;10.66;100.00;101163.03;6324224;22;19918;-83
2022/11/14 01:52:12;;;;;;;;;;;;;;;10.81;100.00;101167.66;6309707;22;19938;-85
2022/11/14 01:54:58;;;;;;;;;;;;;;;10.67;100.00;101160.19;6309481;22;19918;-84
2022/11/14 01:57:44;;;;;;;;;;;;;;;10.38;100.00;101162.16;6310055;22;19913;-83
2022/11/14 02:00:28;;;;;;;;;;;;;;;10.50;100.00;101158.34;6322723;22;19921;-84
2022/11/14 02:03:13;;;;;;;;;;;;;;;10.80;100.00;101159.88;6333188;22;19929;-83
2022/11/14 02:05:59;;;;;;;;;;;;;;;10.82;100.00;101161.41;6333142;22;19958;-84
2022/11/14 02:08:44;;;;;;;;;;;;;;;10.66;100.00;101155.91;6334530;22;19922;-83
2022/11/14 02:11:29;;;;;;;;;;;;;;;10.87;100.00;101156.47;6334507;22;20257;-84
2022/11/14 02:14:14;;;;;;;;;;;;;;;10.85;100.00;101158.44;6326051;22;20261;-84
2022/11/14 02:16:58;;;;;;;;;;;;;;;10.64;100.00;101155.19;6309802;22;19917;-84
2022/11/14 02:19:50;;;;;;;;;;;;;;;10.51;100.00;101153.88;6309508;22;19998;-84
2022/11/14 02:22:35;;;;;;;;;;;;;;;10.81;100.00;101157.06;6309677;22;19952;-85
2022/11/14 02:25:19;;;;;;;;;;;;;;;10.58;100.00;101154.94;6325047;22;19956;-85
2022/11/14 02:28:04;;;;;;;;;;;;;;;10.78;100.00;101154.72;6309662;22;20341;-84
2022/11/14 02:30:48;;;;;;;;;;;;;;;10.73;100.00;101161.44;6310136;22;19957;-83
2022/11/14 02:33:32;;;;;;;;;;;;;;;10.58;100.00;101166.41;6309516;22;20361;-84
2022/11/14 02:36:16;;;;;;;;;;;;;;;10.34;100.00;101158.94;6309232;22;19933;-84
2022/11/14 02:39:00;;;;;;;;;;;;;;;10.41;100.00;101169.81;6308806;22;19918;-84
2022/11/14 02:41:44;;;;;;;;;;;;;;;10.30;100.00;101177.94;6309021;22;19964;-84
2022/11/14 02:44:28;;;;;;;;;;;;;;;10.17;100.00;101166.84;6286182;22;19933;-85
2022/11/14 02:47:12;;;;;;;;;;;;;;;10.38;100.00;101167.44;6308933;22;19953;-84
2022/11/14 02:49:56;;;;;;;;;;;;;;;10.61;100.00;101152.84;6308681;22;19917;-85
2022/11/14 02:52:41;;;;;;;;;;;;;;;10.52;100.00;101156.38;6309193;22;19956;-86
2022/11/14 02:55:25;;;;;;;;;;;;;;;10.48;100.00;101148.84;6286372;22;19939;-85
2022/11/14 02:58:09;;;;;;;;;;;;;;;10.27;100.00;101149.09;6308867;22;19953;-85
2022/11/14 03:00:53;;;;;;;;;;;;;;;10.11;100.00;101143.53;6309634;22;19968;-85
2022/11/14 03:03:37;;;;;;;;;;;;;;;10.18;100.00;101136.69;6309248;22;20043;-83
2022/11/14 03:06:21;;;;;;;;;;;;;;;10.20;100.00;101148.00;6309089;22;19957;-86
2022/11/14 03:09:05;;;;;;;;;;;;;;;10.24;100.00;101152.03;6310698;22;19937;-85
2022/11/14 03:11:49;;;;;;;;;;;;;;;10.28;100.00;101153.41;6299231;22;19917;-86
2022/11/14 03:14:33;;;;;;;;;;;;;;;10.34;100.00;101152.84;6332774;22;19922;-84
2022/11/14 03:17:17;;;;;;;;;;;;;;;10.43;100.00;101157.25;6308788;22;19999;-85
2022/11/14 03:20:01;;;;;;;;;;;;;;;10.53;100.00;101165.16;6286086;22;19918;-84
2022/11/14 03:22:45;;;;;;;;;;;;;;;10.09;100.00;101166.66;6308699;22;19917;-84
2022/11/14 03:25:29;;;;;;;;;;;;;;;9.99;100.00;101160.56;6288615;22;19990;-84
2022/11/14 03:28:13;;;;;;;;;;;;;;;10.09;100.00;101150.78;6308540;22;20349;-83
2022/11/14 03:30:57;;;;;;;;;;;;;;;10.15;100.00;101145.78;6308936;22;19937;-84
2022/11/14 03:33:41;;;;;;;;;;;;;;;9.92;100.00;101143.56;6308420;22;19957;-85
2022/11/14 03:36:25;;;;;;;;;;;;;;;9.96;100.00;101147.63;6311939;22;20006;-84
2022/11/14 03:39:09;;;;;;;;;;;;;;;10.03;100.00;101140.78;6308280;22;19917;-84
2022/11/14 03:41:52;;;;;;;;;;;;;;;10.03;100.00;101138.97;6308728;22;20006;-83
2022/11/14 03:44:36;;;;;;;;;;;;;;;10.33;100.00;101143.22;6308447;22;19968;-83
2022/11/14 03:47:20;;;;;;;;;;;;;;;10.12;100.00;101150.50;6285193;22;19965;-83
2022/11/14 03:50:04;;;;;;;;;;;;;;;10.00;100.00;101155.13;6285918;22;19964;-84
2022/11/14 03:52:49;;;;;;;;;;;;;;;10.06;100.00;101153.72;6310640;22;19960;-83
2022/11/14 03:55:32;;;;;;;;;;;;;;;9.93;100.00;101161.13;6311348;22;19921;-84
2022/11/14 03:58:16;;;;;;;;;;;;;;;9.82;100.00;101149.72;6309930;22;19940;-84
2022/11/14 04:01:00;;;;;;;;;;;;;;;10.16;100.00;101160.69;6311076;22;20281;-84
2022/11/14 04:03:44;;;;;;;;;;;;;;;10.10;100.00;101166.53;6310328;22;19917;-85
2022/11/14 04:06:28;;;;;;;;;;;;;;;9.98;100.00;101161.53;6310365;22;19964;-85
2022/11/14 04:09:12;;;;;;;;;;;;;;;9.83;100.00;101154.06;6310734;22;20357;-84
2022/11/14 04:11:56;;;;;;;;;;;;;;;9.63;100.00;101157.69;6310144;22;20348;-85
2022/11/14 04:14:40;;;;;;;;;;;;;;;9.73;100.00;101158.53;6310438;22;19956;-83
2022/11/14 04:17:24;;;;;;;;;;;;;;;9.78;100.00;101156.28;6310463;22;19965;-86
2022/11/14 04:20:08;;;;;;;;;;;;;;;9.66;100.00;101168.00;6287371;22;19917;-84
2022/11/14 04:22:51;;;;;;;;;;;;;;;9.56;100.00;101167.16;6310649;22;19918;-85
2022/11/14 04:25:35;;;;;;;;;;;;;;;9.69;100.00;101174.81;6310733;22;19921;-84
2022/11/14 04:28:19;;;;;;;;;;;;;;;9.64;100.00;101159.38;6322562;22;19921;-86
2022/11/14 04:31:04;;;;;;;;;;;;;;;9.73;100.00;101157.69;6311191;22;19925;-84
2022/11/14 04:33:48;;;;;;;;;;;;;;;9.61;100.00;101159.63;6310569;22;19918;-84
2022/11/14 04:36:32;;;;;;;;;;;;;;;9.58;100.00;101159.91;6311197;22;19918;-85
2022/11/14 04:39:16;;;;;;;;;;;;;;;9.73;100.00;101157.69;6327432;22;19901;-85
2022/11/14 04:42:00;;;;;;;;;;;;;;;9.72;100.00;101166.59;6313785;22;20289;-85
2022/11/14 04:44:44;;;;;;;;;;;;;;;9.63;100.00;101159.50;6312719;22;20225;-85
2022/11/14 04:47:28;;;;;;;;;;;;;;;9.58;100.00;101159.09;6312965;22;20334;-85
2022/11/14 04:50:12;;;;;;;;;;;;;;;9.56;100.00;101161.03;6288476;22;19961;-83
2022/11/14 04:52:56;;;;;;;;;;;;;;;9.66;100.00;101154.78;6310064;22;19933;-84
2022/11/14 04:55:40;;;;;;;;;;;;;;;9.51;100.00;101148.22;6310081;22;19913;-85
2022/11/14 04:58:24;;;;;;;;;;;;;;;9.70;100.00;101142.94;6309892;22;19918;-84
2022/11/14 05:01:12;;;;;;;;;;;;;;;9.66;100.00;101144.19;6309507;22;20416;-84
2022/11/14 05:03:56;;;;;;;;;;;;;;;9.75;100.00;101140.69;6310034;22;19952;-83
2022/11/14 05:06:40;;;;;;;;;;;;;;;9.76;100.00;101144.16;6309886;22;19917;-83
2022/11/14 05:09:23;;;;;;;;;;;;;;;9.91;100.00;101129.50;6309973;22;19972;-86
2022/11/14 05:12:07;;;;;;;;;;;;;;;9.91;100.00;101129.50;6309881;22;19914;-83
2022/11/14 05:14:54;;;;;;;;;;;;;;;9.85;100.00;101141.50;6310059;22;20240;-85
2022/11/14 05:17:38;;;;;;;;;;;;;;;9.77;100.00;101141.38;6310675;22;19930;-83
2022/11/14 05:20:22;;;;;;;;;;;;;;;9.84;100.00;101139.00;6310360;22;19922;-84
2022/11/14 05:23:06;;;;;;;;;;;;;;;9.94;100.00;101141.63;6309774;22;19937;-83
2022/11/14 05:26:01;;;;;;;;;;;;;;;10.01;100.00;101135.59;6310659;22;19965;-82
2022/11/14 05:28:45;;;;;;;;;;;;;;;10.02;100.00;101136.44;6318220;22;19941;-82
2022/11/14 05:31:29;;;;;;;;;;;;;;;9.93;100.00;101143.44;6332128;22;19905;-81
2022/11/14 05:34:13;;;;;;;;;;;;;;;9.94;100.00;101139.81;6337304;22;19906;-81
2022/11/14 05:36:57;;;;;;;;;;;;;;;10.21;100.00;101144.34;6321949;22;20258;-82
2022/11/14 05:39:41;;;;;;;;;;;;;;;10.03;100.00;101141.59;6310317;22;19939;-82
2022/11/14 05:42:28;;;;;;;;;;;;;;;9.89;100.00;101144.69;6324625;22;19921;-81
2022/11/14 05:45:12;;;;;;;;;;;;;;;9.94;100.00;101144.28;6331342;22;19961;-82
2022/11/14 05:47:57;;;;;;;;;;;;;;;9.97;100.00;101159.88;6310477;22;19964;-83
2022/11/14 05:50:41;;;;;;;;;;;;;;;9.85;100.00;101146.78;6309337;22;19972;-83
2022/11/14 05:53:26;;;;;;;;;;;;;;;9.65;100.00;101153.09;6309690;22;19940;-83
2022/11/14 05:56:12;;;;;;;;;;;;;;;9.88;100.00;101163.38;6309224;22;19929;-85
2022/11/14 05:58:56;;;;;;;;;;;;;;;9.75;100.00;101164.50;6310877;22;19956;-86
2022/11/14 06:01:40;;;;;;;;;;;;;;;9.70;100.00;101169.41;6311091;22;20000;-83
2022/11/14 06:04:24;;;;;;;;;;;;;;;9.70;100.00;101161.47;6330134;22;19945;-87
2022/11/14 06:07:08;;;;;;;;;;;;;;;9.62;100.00;101163.13;6300548;22;19922;-83
2022/11/14 06:09:52;;;;;;;;;;;;;;;9.61;100.00;101164.13;6307221;22;20025;-81
2022/11/14 06:12:36;;;;;;;;;;;;;;;9.65;100.00;101168.13;6307547;22;19933;-84
2022/11/14 06:15:20;;;;;;;;;;;;;;;9.78;100.00;101166.03;6284557;22;19917;-85
2022/11/14 06:18:04;;;;;;;;;;;;;;;9.69;100.00;101166.88;6309553;22;20413;-84
2022/11/14 06:20:48;;;;;;;;;;;;;;;9.63;100.00;101167.44;6308776;22;19933;-82
2022/11/14 06:23:32;;;;;;;;;;;;;;;9.79;100.00;101168.53;6310419;22;19994;-84
2022/11/14 06:26:23;;;;;;;;;;;;;;;9.82;100.00;101173.56;6309394;22;19918;-82
2022/11/14 06:29:08;;;;;;;;;;;;;;;9.84;100.00;101166.28;6312663;22;19998;-83
2022/11/14 06:31:52;;;;;;;;;;;;;;;9.83;100.00;101172.59;6309714;22;19925;-83
2022/11/14 06:34:36;;;;;;;;;;;;;;;10.04;100.00;101185.63;6286148;22;19933;-83
2022/11/14 06:37:20;;;;;;;;;;;;;;;9.94;100.00;101178.69;6309122;22;19917;-85
2022/11/14 06:40:04;;;;;;;;;;;;;;;9.83;100.00;101182.34;6308870;22;19957;-83
2022/11/14 06:42:48;;;;;;;;;;;;;;;9.74;100.00;101186.63;6309659;22;19964;-84
2022/11/14 06:45:32;;;;;;;;;;;;;;;9.80;100.00;101183.47;6311518;22;19960;-87
2022/11/14 06:48:16;;;;;;;;;;;;;;;9.81;100.00;101193.06;6314856;22;19918;-86
2022/11/14 06:51:01;;;;;;;;;;;;;;;9.84;100.00;101192.75;6311335;22;20276;-85
2022/11/14 06:53:45;;;;;;;;;;;;;;;10.01;100.00;101198.34;6322597;22;19918;-86
2022/11/14 06:56:30;;;;;;;;;;;;;;;9.86;100.00;101193.47;6330218;22;19940;-85
2022/11/14 06:59:14;;;;;;;;;;;;;;;9.78;100.00;101193.34;6331234;22;19961;-84
2022/11/14 07:01:58;;;;;;;;;;;;;;;9.79;100.00;101196.81;6334019;22;19905;-87
2022/11/14 07:04:42;;;;;;;;;;;;;;;9.94;100.00;101197.25;6312990;22;19929;-87
2022/11/14 07:07:26;;;;;;;;;;;;;;;9.82;100.00;101200.03;6335635;22;19929;-87
2022/11/14 07:10:10;;;;;;;;;;;;;;;9.96;100.00;101195.28;6333699;22;19941;-89
2022/11/14 07:12:54;;;;;;;;;;;;;;;9.80;100.00;101204.63;6328403;22;19917;-88
2022/11/14 07:15:38;;;;;;;;;;;;;;;10.01;100.00;101199.16;6326923;22;20349;-90
2022/11/14 07:18:22;;;;;;;;;;;;;;;9.95;100.00;101209.47;6325989;22;20297;-89
2022/11/14 07:21:07;;;;;;;;;;;;;;;9.90;100.00;101211.72;6327082;22;19925;-90
2022/11/14 07:23:50;;;;;;;;;;;;;;;10.08;100.00;101221.44;6303702;22;19917;-90
2022/11/14 07:26:34;;;;;;;;;;;;;;;10.18;100.00;101217.00;6329874;22;19921;-89
2022/11/14 07:29:18;;;;;;;;;;;;;;;10.05;100.00;101221.72;6334716;22;19914;-81
2022/11/14 07:32:02;;;;;;;;;;;;;;;9.93;100.00;101222.03;6304368;22;19999;-87
2022/11/14 07:34:49;;;;;;;;;;;;;;;10.00;100.00;101225.78;6313462;22;19918;-87
2022/11/14 07:37:33;;;;;;;;;;;;;;;10.08;100.00;101216.16;6311710;22;19918;-86
2022/11/14 07:40:18;;;;;;;;;;;;;;;10.08;100.00;101229.41;6311383;22;20349;-87
2022/11/14 07:43:02;;;;;;;;;;;;;;;10.14;100.00;101222.75;6311205;22;19918;-90
2022/11/14 07:45:46;;;;;;;;;;;;;;;10.02;100.00;101221.19;6311898;22;19981;-87
2022/11/14 07:48:30;;;;;;;;;;;;;;;9.94;100.00;101227.22;6312128;22;19922;-87
2022/11/14 07:51:16;;;;;;;;;;;;;;;10.14;100.00;101236.00;6311234;22;19918;-87
2022/11/14 07:54:00;;;;;;;;;;;;;;;10.06;100.00;101227.88;6287299;22;19917;-88
2022/11/14 07:56:44;;;;;;;;;;;;;;;10.09;100.00;101220.47;6287289;22;20053;-86
2022/11/14 07:59:28;;;;;;;;;;;;;;;10.13;100.00;101218.38;6310305;22;19970;-90
2022/11/14 08:02:13;;;;;;;;;;;;;;;10.19;100.00;101223.16;6311560;22;19918;-87
2022/11/14 08:04:57;;;;;;;;;;;;;;;10.36;100.00;101225.91;6312417;22;19914;-88
2022/11/14 08:07:41;;;;;;;;;;;;;;;10.55;100.00;101219.69;6311542;22;19980;-86
2022/11/14 08:10:24;;;;;;;;;;;;;;;10.46;100.00;101219.72;6311514;22;19918;-88
2022/11/14 08:13:09;;;;;;;;;;;;;;;10.19;100.00;101218.69;6311822;22;19913;-85
2022/11/14 08:15:54;;;;;;;;;;;;;;;10.15;100.00;101217.28;6311192;22;19994;-87
2022/11/14 08:18:38;;;;;;;;;;;;;;;10.28;100.00;101222.28;6311559;22;19917;-88
2022/11/14 08:21:22;;;;;;;;;;;;;;;10.55;100.00;101225.00;6310748;22;19919;-88
2022/11/14 08:24:06;;;;;;;;;;;;;;;10.52;100.00;101225.28;6312412;22;20693;-88
2022/11/14 08:26:50;;;;;;;;;;;;;;;10.82;100.00;101226.84;6287548;22;20005;-87
2022/11/14 08:29:33;;;;;;;;;;;;;;;10.94;100.00;101230.16;6310942;22;19922;-87
2022/11/14 08:32:18;;;;;;;;;;;;;;;10.79;100.00;101230.63;6310512;22;20246;-89
2022/11/14 08:35:02;;;;;;;;;;;;;;;11.03;100.00;101234.56;6308183;22;19996;-86
2022/11/14 08:37:46;;;;;;;;;;;;;;;10.75;100.00;101231.91;6288321;22;19933;-85
2022/11/14 08:40:30;;;;;;;;;;;;;;;11.11;100.00;101242.59;6313468;22;20288;-87
2022/11/14 08:43:14;;;;;;;;;;;;;;;10.94;100.00;101235.47;6311949;22;19922;-86
2022/11/14 08:46:01;;;;;;;;;;;;;;;10.93;100.00;101236.44;6314471;22;19941;-86
2022/11/14 08:48:45;;;;;;;;;;;;;;;11.05;100.00;101243.22;6327297;22;19964;-83
2022/11/14 08:54:36;;;;;;;;;;;;;;;11.18;100.00;101243.69;6334967;22;19918;-85
2022/11/14 08:57:21;;;;;;;;;;;;;;;11.12;100.00;101246.94;6330770;22;19918;-88
2022/11/14 09:00:06;;;;;;;;;;;;;;;11.07;100.00;101246.56;6330426;22;19941;-84
2022/11/14 09:02:50;;;;;;;;;;;;;;;11.19;100.00;101245.38;6332796;22;19922;-84
2022/11/14 09:05:35;;;;;;;;;;;;;;;11.29;100.00;101247.00;6330495;22;20252;-84
2022/11/14 09:08:22;;;;;;;;;;;;;;;11.50;100.00;101252.00;6331696;22;19906;-87
2022/11/14 09:11:07;;;;;;;;;;;;;;;11.60;100.00;101254.63;6321550;22;19917;-85
2022/11/14 09:13:51;;;;;;;;;;;;;;;11.49;100.00;101247.69;6291880;22;19993;-85
2022/11/14 09:16:35;;;;;;;;;;;;;;;11.56;100.00;101254.09;6319844;22;19933;-86
2022/11/14 09:19:22;;;;;;;;;;;;;;;11.80;100.00;101251.66;6296995;22;19921;-87
2022/11/14 09:22:06;;;;;;;;;;;;;;;11.77;100.00;101248.47;6313854;22;19955;-81
2022/11/14 09:24:51;;;;;;;;;;;;;;;11.76;100.00;101254.81;6290075;22;20361;-85
2022/11/14 09:27:35;;;;;;;;;;;;;;;11.63;100.00;101249.84;6312535;22;20257;-84
2022/11/14 09:30:21;;;;;;;;;;;;;;;11.68;100.00;101247.56;6322132;22;19921;-84
2022/11/14 09:33:05;;;;;;;;;;;;;;;11.93;100.00;101250.47;6321813;22;19938;-80
2022/11/14 09:35:54;;;;;;;;;;;;;;;11.99;100.00;101249.84;6300868;22;19941;-84
2022/11/14 09:38:38;;;;;;;;;;;;;;;12.30;100.00;101249.25;6325697;22;19933;-83
2022/11/14 09:41:25;;;;;;;;;;;;;;;12.50;100.00;101255.22;6303244;22;19969;-84
2022/11/14 09:44:21;;;;;;;;;;;;;;;12.58;100.00;101257.94;6327427;22;19917;-86
2022/11/14 09:47:17;;;;;;;;;;;;;;;12.58;100.00;101254.44;6310818;22;20254;-86
2022/11/14 09:50:04;;;;;;;;;;;;;;;12.68;100.00;101252.50;6310951;22;19949;-88
2022/11/14 09:52:53;;;;;;;;;;;;;;;12.53;100.00;101254.09;6311447;22;20303;-85
2022/11/14 09:55:37;;;;;;;;;;;;;;;12.61;100.00;101259.44;6289437;22;19980;-89
2022/11/14 09:58:21;;;;;;;;;;;;;;;12.61;100.00;101257.63;6315721;22;19933;-89
2022/11/14 10:01:10;;;;;;;;;;;;;;;12.60;100.00;101249.78;6315023;22;19922;-84
2022/11/14 10:04:01;;;;;;;;;;;;;;;12.79;100.00;101253.03;6290559;22;19929;-89
2022/11/14 10:06:52;;;;;;;;;;;;;;;13.00;100.00;101242.00;6316172;22;20344;-86
2022/11/14 10:09:48;;;;;;;;;;;;;;;13.08;100.00;101239.38;6319943;22;19975;-84
2022/11/14 10:12:57;;;;;;;;;;;;;;;12.91;100.00;101243.81;6311639;22;20349;-85
2022/11/14 10:15:44;;;;;;;;;;;;;;;13.11;100.00;101246.25;6310086;22;19939;-86
2022/11/14 10:18:48;;;;;;;;;;;;;;;12.85;100.00;101239.13;6317604;22;20041;-83
2022/11/14 10:21:51;;;;;;;;;;;;;;;12.59;100.00;101233.00;6286533;22;19909;-89
2022/11/14 10:24:48;;;;;;;;;;;;;;;12.75;100.00;101227.78;6287575;22;19918;-81
2022/11/14 10:27:41;;;;;;;;;;;;;;;12.88;100.00;101228.16;6309501;22;19917;-81
2022/11/14 10:30:33;;;;;;;;;;;;;;;12.81;100.00;101227.13;6291839;22;19922;-83
2022/11/14 10:33:32;;;;;;;;;;;;;;;12.69;100.00;101223.09;6309328;22;20345;-85
2022/11/14 10:36:32;;;;;;;;;;;;;;;12.63;100.00;101222.88;6319009;22;19957;-82
2022/11/14 10:39:23;;;;;;;;;;;;;;;12.68;100.00;101218.75;6309147;22;19996;-84
2022/11/14 10:42:27;;;;;;;;;;;;;;;12.67;100.00;101219.75;6308463;22;19917;-81
2022/11/14 10:45:29;;;;;;;;;;;;;;;12.63;100.00;101213.06;6308671;22;20399;-82
2022/11/14 10:48:13;;;;;;;;;;;;;;;12.57;100.00;101224.34;6308178;22;19937;-83
2022/11/14 10:50:59;;;;;;;;;;;;;;;12.56;100.00;101220.00;6315718;22;19949;-85
2022/11/14 10:53:44;;;;;;;;;;;;;;;12.72;100.00;101209.47;6309672;22;19914;-80
2022/11/14 10:56:28;;;;;;;;;;;;;;;12.59;100.00;101205.59;6309208;22;19917;-84
2022/11/14 10:59:12;;;;;;;;;;;;;;;12.49;100.00;101213.69;6308911;22;19921;-81
2022/11/14 11:01:57;;;;;;;;;;;;;;;12.64;100.00;101214.75;6308899;22;19917;-85
2022/11/14 11:04:42;;;;;;;;;;;;;;;12.47;100.00;101205.00;6308330;22;20192;-83
2022/11/14 11:13:54;;;;;;;;;;;;;;;12.25;100.00;101218.84;6308115;22;19917;-82
2022/11/14 11:16:38;;;;;;;;;;;;;;;12.46;100.00;101208.69;6308658;22;19956;-82
2022/11/14 11:19:23;;;;;;;;;;;;;;;12.54;100.00;101202.56;6285772;22;19917;-80
2022/11/14 11:22:22;;;;;;;;;;;;;;;12.48;100.00;101198.72;6308633;22;19917;-82
2022/11/14 11:25:33;;;;;;;;;;;;;;;12.63;100.00;101193.63;6284927;22;19918;-84
2022/11/14 11:28:16;;;;;;;;;;;;;;;12.81;100.00;101205.84;6308234;22;19917;-83
2022/11/14 11:31:02;;;;;;;;;;;;;;;12.91;100.00;101200.41;6310498;22;19926;-84
2022/11/14 11:33:46;;;;;;;;;;;;;;;13.08;100.00;101201.28;6285883;22;20237;-82
2022/11/14 11:36:33;;;;;;;;;;;;;;;13.19;100.00;101195.72;6308330;22;19940;-82
2022/11/14 11:39:22;;;;;;;;;;;;;;;13.23;100.00;101197.03;6308015;22;19965;-82
2022/11/14 11:42:10;;;;;;;;;;;;;;;13.31;100.00;101197.91;6308983;22;19925;-82
2022/11/14 11:44:57;;;;;;;;;;;;;;;13.30;100.00;101193.56;6314408;22;19917;-82
2022/11/14 11:47:45;;;;;;;;;;;;;;;13.01;100.00;101189.63;6323824;22;19921;-82
2022/11/14 11:50:28;;;;;;;;;;;;;;;13.01;100.00;101187.81;6320277;22;19938;-83
2022/11/14 11:53:23;;;;;;;;;;;;;;;13.12;100.00;101189.38;6321525;22;19961;-82
2022/11/14 11:56:25;;;;;;;;;;;;;;;13.24;100.00;101180.06;6330365;22;19909;-84
2022/11/14 11:59:21;;;;;;;;;;;;;;;13.48;100.00;101182.78;6331771;22;19925;-83
2022/11/14 12:02:19;;;;;;;;;;;;;;;13.53;100.00;101177.78;6323023;22;19922;-82
2022/11/14 12:05:04;;;;;;;;;;;;;;;13.65;100.00;101181.81;6308444;22;19917;-83
2022/11/14 12:07:59;;;;;;;;;;;;;;;13.57;100.00;101176.47;6307785;22;19997;-82
2022/11/14 12:10:46;;;;;;;;;;;;;;;13.60;100.00;101180.63;6307387;22;19913;-83
2022/11/14 12:13:49;;;;;;;;;;;;;;;13.73;100.00;101176.47;6308445;22;20334;-85
2022/11/14 12:16:52;;;;;;;;;;;;;;;13.71;100.00;101173.16;6311147;22;19963;-89
2022/11/14 12:19:52;;;;;;;;;;;;;;;13.76;100.00;101175.28;6289523;22;20242;-87
2022/11/14 12:22:56;;;;;;;;;;;;;;;13.59;100.00;101165.66;6314442;22;20318;-86
2022/11/14 12:26:01;;;;;;;;;;;;;;;13.62;100.00;101163.47;6314726;22;19918;-88
2022/11/14 12:28:57;;;;;;;;;;;;;;;13.76;100.00;101160.13;6311924;22;19956;-86
2022/11/14 12:31:42;;;;;;;;;;;;;;;13.72;100.00;101153.47;6291896;22;20035;-86
2022/11/14 12:34:30;;;;;;;;;;;;;;;13.80;100.00;101145.50;6314925;22;20249;-87
2022/11/14 12:37:19;;;;;;;;;;;;;;;13.66;100.00;101148.81;6313477;22;19917;-86
2022/11/14 12:40:04;;;;;;;;;;;;;;;13.53;100.00;101148.50;6314614;22;19941;-87
2022/11/14 12:42:48;;;;;;;;;;;;;;;13.61;100.00;101139.69;6311984;22;19922;-85
2022/11/14 12:45:38;;;;;;;;;;;;;;;13.56;100.00;101142.00;6290125;22;19917;-85
2022/11/14 12:48:30;;;;;;;;;;;;;;;13.48;100.00;101140.19;6312454;22;19921;-88
2022/11/14 12:51:23;;;;;;;;;;;;;;;13.67;100.00;101137.19;6288318;22;19998;-88
2022/11/14 12:54:27;;;;;;;;;;;;;;;13.50;100.00;101138.16;6312141;22;19917;-85
2022/11/14 12:57:46;;;;;;;;;;;;;;;13.89;100.00;101141.81;6310702;22;19913;-87
2022/11/14 13:00:21;;;;;;;;;;;;;;;13.68;100.00;101141.50;6311666;22;20334;-86
2022/11/14 13:03:26;;;;;;;;;;;;;;;13.51;100.00;101131.84;6313105;22;19917;-88
2022/11/14 13:06:28;;;;;;;;;;;;;;;13.69;100.00;101137.84;6311067;22;19918;-85
2022/11/14 13:09:32;;;;;;;;;;;;;;;13.51;100.00;101139.84;6317162;22;19918;-85
2022/11/14 13:21:47;;;;;;;;;;;;;;;13.72;100.00;101131.34;6313139;22;19953;-85
2022/11/14 13:24:49;;;;;;;;;;;;;;;13.61;100.00;101129.88;6292099;22;19959;-86
2022/11/14 13:27:34;;;;;;;;;;;;;;;13.47;100.00;101122.53;6313199;22;19914;-88
2022/11/14 13:30:18;;;;;;;;;;;;;;;13.24;100.00;101121.50;6312974;22;19921;-89
2022/11/14 13:33:02;;;;;;;;;;;;;;;13.14;100.00;101121.66;6311033;22;20404;-86
2022/11/14 13:35:53;;;;;;;;;;;;;;;13.22;100.00;101121.69;6313123;22;19918;-83
2022/11/14 13:38:52;;;;;;;;;;;;;;;13.44;100.00;101114.88;6288884;22;19989;-86
2022/11/14 13:42:11;;;;;;;;;;;;;;;13.33;100.00;101123.19;6287998;22;20001;-86
2022/11/14 13:45:13;;;;;;;;;;;;;;;13.21;100.00;101117.34;6185616;23;19938;-89
2022/11/14 13:48:22;;;;;;;;;;;;;;;13.06;100.00;101107.50;6290505;22;20357;-90
2022/11/14 13:51:10;;;;;;;;;;;;;;;12.94;100.00;101102.47;6295280;22;19949;-88
2022/11/14 13:53:57;;;;;;;;;;;;;;;13.10;100.00;101108.84;6321802;22;19941;-90
2022/11/14 13:56:54;;;;;;;;;;;;;;;12.95;100.00;101109.47;6319917;22;19918;-90
2022/11/14 13:59:57;;;;;;;;;;;;;;;12.96;100.00;101116.44;6317269;22;19937;-86
2022/11/14 14:02:54;;;;;;;;;;;;;;;12.96;100.00;101103.13;6322042;22;19943;-84
2022/11/14 14:05:50;;;;;;;;;;;;;;;12.91;100.00;101099.31;6334038;22;20041;-83
2022/11/14 14:08:53;;;;;;;;;;;;;;;12.82;100.00;101103.78;6314538;22;19925;-86
2022/11/14 14:11:48;;;;;;;;;;;;;;;12.87;100.00;101101.47;6327621;22;19968;-87
2022/11/14 14:14:40;;;;;;;;;;;;;;;12.92;100.00;101106.31;6318625;22;20306;-88
2022/11/14 14:17:46;;;;;;;;;;;;;;;13.09;100.00;101099.22;6319155;22;19933;-85
2022/11/14 14:20:37;;;;;;;;;;;;;;;13.29;100.00;101095.25;6319675;22;19934;-87
2022/11/14 14:23:39;;;;;;;;;;;;;;;13.37;100.00;101095.22;6317243;22;19917;-86
2022/11/14 14:26:42;;;;;;;;;;;;;;;13.16;100.00;101093.03;6319531;22;20306;-88
2022/11/14 14:29:45;;;;;;;;;;;;;;;12.98;100.00;101083.53;6297618;22;20340;-86